sensor_id;sensor_type;location;lat;lon;timestamp;temperature;humidity
25092;DHT22;13082;52.374;4.946;2024-02-04T00:00:28;10.70;99.90
25092;DHT22;13082;52.374;4.946;2024-02-04T00:02:53;10.70;99.90
25092;DHT22;13082;52.374;4.946;2024-02-04T00:05:19;10.70;99.90
25092;DHT22;13082;52.374;4.946;2024-02-04T00:07:45;10.70;99.90
25092;DHT22;13082;52.374;4.946;2024-02-04T00:10:11;10.70;99.90
25092;DHT22;13082;52.374;4.946;2024-02-04T00:12:37;10.60;99.90
25092;DHT22;13082;52.374;4.946;2024-02-04T00:15:04;10.60;99.90
25092;DHT22;13082;52.374;4.946;2024-02-04T00:17:30;10.60;99.90
25092;DHT22;13082;52.374;4.946;2024-02-04T00:19:58;10.60;99.90
25092;DHT22;13082;52.374;4.946;2024-02-04T00:22:24;10.70;99.90
25092;DHT22;13082;52.374;4.946;2024-02-04T00:24:50;10.60;99.90
25092;DHT22;13082;52.374;4.946;2024-02-04T00:27:16;10.70;99.90
25092;DHT22;13082;52.374;4.946;2024-02-04T00:29:41;10.70;99.90
25092;DHT22;13082;52.374;4.946;2024-02-04T00:32:07;10.60;99.90
25092;DHT22;13082;52.374;4.946;2024-02-04T00:34:32;10.60;99.90
25092;DHT22;13082;52.374;4.946;2024-02-04T00:36:58;10.60;99.90
25092;DHT22;13082;52.374;4.946;2024-02-04T00:39:24;10.60;99.90
25092;DHT22;13082;52.374;4.946;2024-02-04T00:41:50;10.60;99.90
25092;DHT22;13082;52.374;4.946;2024-02-04T00:44:15;10.60;99.90
25092;DHT22;13082;52.374;4.946;2024-02-04T00:46:41;10.60;99.90
25092;DHT22;13082;52.374;4.946;2024-02-04T00:49:06;10.50;99.90
25092;DHT22;13082;52.374;4.946;2024-02-04T00:51:32;10.50;99.90
25092;DHT22;13082;52.374;4.946;2024-02-04T00:53:58;10.40;99.90
25092;DHT22;13082;52.374;4.946;2024-02-04T00:56:24;10.30;99.90
25092;DHT22;13082;52.374;4.946;2024-02-04T00:58:49;10.30;99.90
25092;DHT22;13082;52.374;4.946;2024-02-04T01:01:15;10.20;99.90
25092;DHT22;13082;52.374;4.946;2024-02-04T01:03:40;10.20;99.90
25092;DHT22;13082;52.374;4.946;2024-02-04T01:06:06;10.20;99.90
25092;DHT22;13082;52.374;4.946;2024-02-04T01:08:32;10.20;99.90
25092;DHT22;13082;52.374;4.946;2024-02-04T01:11:00;10.10;99.90
25092;DHT22;13082;52.374;4.946;2024-02-04T01:13:25;10.00;99.90
25092;DHT22;13082;52.374;4.946;2024-02-04T01:15:51;10.00;99.90
25092;DHT22;13082;52.374;4.946;2024-02-04T01:18:16;10.00;99.90
25092;DHT22;13082;52.374;4.946;2024-02-04T01:20:42;10.00;99.90
25092;DHT22;13082;52.374;4.946;2024-02-04T01:23:08;10.00;99.90
25092;DHT22;13082;52.374;4.946;2024-02-04T01:25:34;10.00;99.90
25092;DHT22;13082;52.374;4.946;2024-02-04T01:27:59;10.00;99.90
25092;DHT22;13082;52.374;4.946;2024-02-04T01:30:25;9.90;99.90
25092;DHT22;13082;52.374;4.946;2024-02-04T01:32:50;10.00;99.90
25092;DHT22;13082;52.374;4.946;2024-02-04T01:35:16;9.90;99.90
25092;DHT22;13082;52.374;4.946;2024-02-04T01:37:42;10.00;99.90
25092;DHT22;13082;52.374;4.946;2024-02-04T01:40:09;10.00;99.90
25092;DHT22;13082;52.374;4.946;2024-02-04T01:42:35;10.00;99.90
25092;DHT22;13082;52.374;4.946;2024-02-04T01:45:00;10.00;99.90
25092;DHT22;13082;52.374;4.946;2024-02-04T01:47:26;9.90;99.90
25092;DHT22;13082;52.374;4.946;2024-02-04T01:49:52;9.90;99.90
25092;DHT22;13082;52.374;4.946;2024-02-04T01:52:18;9.90;99.90
25092;DHT22;13082;52.374;4.946;2024-02-04T01:54:44;9.90;99.90
25092;DHT22;13082;52.374;4.946;2024-02-04T01:57:10;10.00;99.90
25092;DHT22;13082;52.374;4.946;2024-02-04T01:59:39;9.90;99.90
25092;DHT22;13082;52.374;4.946;2024-02-04T02:02:05;9.90;99.90
25092;DHT22;13082;52.374;4.946;2024-02-04T02:04:31;9.90;99.90
25092;DHT22;13082;52.374;4.946;2024-02-04T02:06:57;9.90;99.90
25092;DHT22;13082;52.374;4.946;2024-02-04T02:09:25;9.90;99.90
25092;DHT22;13082;52.374;4.946;2024-02-04T02:12:07;9.90;99.90
25092;DHT22;13082;52.374;4.946;2024-02-04T02:14:38;9.80;99.90
25092;DHT22;13082;52.374;4.946;2024-02-04T02:17:10;9.90;99.90
25092;DHT22;13082;52.374;4.946;2024-02-04T02:20:29;9.90;99.90
25092;DHT22;13082;52.374;4.946;2024-02-04T02:25:12;9.80;99.90
25092;DHT22;13082;52.374;4.946;2024-02-04T02:27:49;9.80;99.90
25092;DHT22;13082;52.374;4.946;2024-02-04T02:30:16;9.80;99.90
25092;DHT22;13082;52.374;4.946;2024-02-04T02:32:43;9.80;99.90
25092;DHT22;13082;52.374;4.946;2024-02-04T02:35:10;9.80;99.90
25092;DHT22;13082;52.374;4.946;2024-02-04T02:37:43;9.80;99.90
25092;DHT22;13082;52.374;4.946;2024-02-04T02:40:21;9.90;99.90
25092;DHT22;13082;52.374;4.946;2024-02-04T02:42:49;9.80;99.90
25092;DHT22;13082;52.374;4.946;2024-02-04T02:45:22;9.70;99.90
25092;DHT22;13082;52.374;4.946;2024-02-04T02:47:49;9.80;99.90
25092;DHT22;13082;52.374;4.946;2024-02-04T02:50:16;9.80;99.90
25092;DHT22;13082;52.374;4.946;2024-02-04T02:52:41;9.70;99.90
25092;DHT22;13082;52.374;4.946;2024-02-04T02:55:07;9.70;99.90
25092;DHT22;13082;52.374;4.946;2024-02-04T02:57:33;9.80;99.90
25092;DHT22;13082;52.374;4.946;2024-02-04T02:59:58;9.90;99.90
25092;DHT22;13082;52.374;4.946;2024-02-04T03:02:24;9.90;99.90
25092;DHT22;13082;52.374;4.946;2024-02-04T03:04:49;9.90;99.90
25092;DHT22;13082;52.374;4.946;2024-02-04T03:07:15;9.80;99.90
25092;DHT22;13082;52.374;4.946;2024-02-04T03:09:40;9.80;99.90
25092;DHT22;13082;52.374;4.946;2024-02-04T03:12:06;9.80;99.90
25092;DHT22;13082;52.374;4.946;2024-02-04T03:14:32;9.80;99.90
25092;DHT22;13082;52.374;4.946;2024-02-04T03:16:58;9.80;99.90
25092;DHT22;13082;52.374;4.946;2024-02-04T03:19:23;9.80;99.90
25092;DHT22;13082;52.374;4.946;2024-02-04T03:21:49;9.80;99.90
25092;DHT22;13082;52.374;4.946;2024-02-04T03:24:14;9.90;99.90
25092;DHT22;13082;52.374;4.946;2024-02-04T03:26:40;9.80;99.90
25092;DHT22;13082;52.374;4.946;2024-02-04T03:29:05;9.80;99.90
25092;DHT22;13082;52.374;4.946;2024-02-04T03:31:31;9.80;99.90
25092;DHT22;13082;52.374;4.946;2024-02-04T03:33:57;9.80;99.90
25092;DHT22;13082;52.374;4.946;2024-02-04T03:36:24;9.80;99.90
25092;DHT22;13082;52.374;4.946;2024-02-04T03:38:53;9.70;99.90
25092;DHT22;13082;52.374;4.946;2024-02-04T03:41:18;9.70;99.90
25092;DHT22;13082;52.374;4.946;2024-02-04T03:43:44;9.70;99.90
25092;DHT22;13082;52.374;4.946;2024-02-04T03:46:16;9.70;99.90
25092;DHT22;13082;52.374;4.946;2024-02-04T03:48:43;9.60;99.90
25092;DHT22;13082;52.374;4.946;2024-02-04T03:51:14;9.60;99.90
25092;DHT22;13082;52.374;4.946;2024-02-04T03:53:40;9.60;99.90
25092;DHT22;13082;52.374;4.946;2024-02-04T03:56:05;9.60;99.90
25092;DHT22;13082;52.374;4.946;2024-02-04T03:58:32;9.60;99.90
25092;DHT22;13082;52.374;4.946;2024-02-04T04:00:58;9.60;99.90
25092;DHT22;13082;52.374;4.946;2024-02-04T04:03:27;9.60;99.90
25092;DHT22;13082;52.374;4.946;2024-02-04T04:05:56;9.60;99.90
25092;DHT22;13082;52.374;4.946;2024-02-04T04:08:21;9.60;99.90
25092;DHT22;13082;52.374;4.946;2024-02-04T04:10:47;9.60;99.90
25092;DHT22;13082;52.374;4.946;2024-02-04T04:13:13;9.60;99.90
25092;DHT22;13082;52.374;4.946;2024-02-04T04:15:39;9.60;99.90
25092;DHT22;13082;52.374;4.946;2024-02-04T04:18:04;9.70;99.90
25092;DHT22;13082;52.374;4.946;2024-02-04T04:20:30;9.70;99.90
25092;DHT22;13082;52.374;4.946;2024-02-04T04:22:56;9.70;99.90
25092;DHT22;13082;52.374;4.946;2024-02-04T04:25:21;9.70;99.90
25092;DHT22;13082;52.374;4.946;2024-02-04T04:27:47;9.70;99.90
25092;DHT22;13082;52.374;4.946;2024-02-04T04:30:13;9.70;99.90
25092;DHT22;13082;52.374;4.946;2024-02-04T04:32:38;9.70;99.90
25092;DHT22;13082;52.374;4.946;2024-02-04T04:35:04;9.70;99.90
25092;DHT22;13082;52.374;4.946;2024-02-04T04:37:30;9.70;99.90
25092;DHT22;13082;52.374;4.946;2024-02-04T04:39:55;9.70;99.90
25092;DHT22;13082;52.374;4.946;2024-02-04T04:42:21;9.70;99.90
25092;DHT22;13082;52.374;4.946;2024-02-04T04:44:46;9.80;99.90
25092;DHT22;13082;52.374;4.946;2024-02-04T04:47:12;9.70;99.90
25092;DHT22;13082;52.374;4.946;2024-02-04T04:49:38;9.80;99.90
25092;DHT22;13082;52.374;4.946;2024-02-04T04:52:04;9.70;99.90
25092;DHT22;13082;52.374;4.946;2024-02-04T04:54:29;9.70;99.90
25092;DHT22;13082;52.374;4.946;2024-02-04T04:56:55;9.70;99.90
25092;DHT22;13082;52.374;4.946;2024-02-04T04:59:21;9.70;99.90
25092;DHT22;13082;52.374;4.946;2024-02-04T05:01:47;9.80;99.90
25092;DHT22;13082;52.374;4.946;2024-02-04T05:04:13;9.80;99.90
25092;DHT22;13082;52.374;4.946;2024-02-04T05:06:40;9.80;99.90
25092;DHT22;13082;52.374;4.946;2024-02-04T05:09:05;9.90;99.90
25092;DHT22;13082;52.374;4.946;2024-02-04T05:11:31;9.80;99.90
25092;DHT22;13082;52.374;4.946;2024-02-04T05:13:56;9.90;99.90
25092;DHT22;13082;52.374;4.946;2024-02-04T05:16:22;9.90;99.90
25092;DHT22;13082;52.374;4.946;2024-02-04T05:18:48;9.90;99.90
25092;DHT22;13082;52.374;4.946;2024-02-04T05:21:13;9.90;99.90
25092;DHT22;13082;52.374;4.946;2024-02-04T05:23:39;9.90;99.90
25092;DHT22;13082;52.374;4.946;2024-02-04T05:26:05;9.90;99.90
25092;DHT22;13082;52.374;4.946;2024-02-04T05:28:31;9.90;99.90
25092;DHT22;13082;52.374;4.946;2024-02-04T05:30:56;9.90;99.90
25092;DHT22;13082;52.374;4.946;2024-02-04T05:33:22;9.90;99.90
25092;DHT22;13082;52.374;4.946;2024-02-04T05:35:48;9.80;99.90
25092;DHT22;13082;52.374;4.946;2024-02-04T05:38:13;9.80;99.90
25092;DHT22;13082;52.374;4.946;2024-02-04T05:40:39;9.80;99.90
25092;DHT22;13082;52.374;4.946;2024-02-04T05:43:05;9.80;99.90
25092;DHT22;13082;52.374;4.946;2024-02-04T05:45:33;9.90;99.90
25092;DHT22;13082;52.374;4.946;2024-02-04T05:47:59;9.90;99.90
25092;DHT22;13082;52.374;4.946;2024-02-04T05:50:24;9.90;99.90
25092;DHT22;13082;52.374;4.946;2024-02-04T05:52:50;9.90;99.90
25092;DHT22;13082;52.374;4.946;2024-02-04T05:55:15;9.90;99.90
25092;DHT22;13082;52.374;4.946;2024-02-04T05:57:41;9.90;99.90
25092;DHT22;13082;52.374;4.946;2024-02-04T06:00:08;10.00;99.90
25092;DHT22;13082;52.374;4.946;2024-02-04T06:02:35;9.90;99.90
25092;DHT22;13082;52.374;4.946;2024-02-04T06:05:01;9.90;99.90
25092;DHT22;13082;52.374;4.946;2024-02-04T06:07:27;9.90;99.90
25092;DHT22;13082;52.374;4.946;2024-02-04T06:09:54;9.90;99.90
25092;DHT22;13082;52.374;4.946;2024-02-04T06:12:21;9.90;99.90
25092;DHT22;13082;52.374;4.946;2024-02-04T06:14:47;10.00;99.90
25092;DHT22;13082;52.374;4.946;2024-02-04T06:17:13;10.00;99.90
25092;DHT22;13082;52.374;4.946;2024-02-04T06:19:38;10.00;99.90
25092;DHT22;13082;52.374;4.946;2024-02-04T06:22:04;10.10;99.90
25092;DHT22;13082;52.374;4.946;2024-02-04T06:24:30;10.10;99.90
25092;DHT22;13082;52.374;4.946;2024-02-04T06:26:55;10.10;99.90
25092;DHT22;13082;52.374;4.946;2024-02-04T06:29:21;10.10;99.90
25092;DHT22;13082;52.374;4.946;2024-02-04T06:31:47;10.10;99.90
25092;DHT22;13082;52.374;4.946;2024-02-04T06:34:12;10.10;99.90
25092;DHT22;13082;52.374;4.946;2024-02-04T06:36:42;10.20;99.90
25092;DHT22;13082;52.374;4.946;2024-02-04T06:39:08;10.20;99.90
25092;DHT22;13082;52.374;4.946;2024-02-04T06:41:34;10.20;99.90
25092;DHT22;13082;52.374;4.946;2024-02-04T06:44:00;10.20;99.90
25092;DHT22;13082;52.374;4.946;2024-02-04T06:46:27;10.20;99.90
25092;DHT22;13082;52.374;4.946;2024-02-04T06:48:53;10.20;99.90
25092;DHT22;13082;52.374;4.946;2024-02-04T06:51:19;10.10;99.90
25092;DHT22;13082;52.374;4.946;2024-02-04T06:53:45;10.20;99.90
25092;DHT22;13082;52.374;4.946;2024-02-04T06:56:10;10.20;99.90
25092;DHT22;13082;52.374;4.946;2024-02-04T06:58:39;10.20;99.90
25092;DHT22;13082;52.374;4.946;2024-02-04T07:01:05;10.20;99.90
25092;DHT22;13082;52.374;4.946;2024-02-04T07:03:31;10.10;99.90
25092;DHT22;13082;52.374;4.946;2024-02-04T07:06:00;10.20;99.90
25092;DHT22;13082;52.374;4.946;2024-02-04T07:08:26;10.20;99.90
25092;DHT22;13082;52.374;4.946;2024-02-04T07:10:52;10.20;99.90
25092;DHT22;13082;52.374;4.946;2024-02-04T07:13:18;10.20;99.90
25092;DHT22;13082;52.374;4.946;2024-02-04T07:15:44;10.30;99.90
25092;DHT22;13082;52.374;4.946;2024-02-04T07:18:09;10.30;99.90
25092;DHT22;13082;52.374;4.946;2024-02-04T07:20:35;10.30;99.90
25092;DHT22;13082;52.374;4.946;2024-02-04T07:23:01;10.30;99.90
25092;DHT22;13082;52.374;4.946;2024-02-04T07:25:26;10.30;99.90
25092;DHT22;13082;52.374;4.946;2024-02-04T07:27:52;10.30;99.90
25092;DHT22;13082;52.374;4.946;2024-02-04T07:30:18;10.30;99.90
25092;DHT22;13082;52.374;4.946;2024-02-04T07:32:44;10.30;99.90
25092;DHT22;13082;52.374;4.946;2024-02-04T07:35:09;10.30;99.90
25092;DHT22;13082;52.374;4.946;2024-02-04T07:37:35;10.30;99.90
25092;DHT22;13082;52.374;4.946;2024-02-04T07:40:01;10.30;99.90
25092;DHT22;13082;52.374;4.946;2024-02-04T07:42:27;10.30;99.90
25092;DHT22;13082;52.374;4.946;2024-02-04T07:44:53;10.30;99.90
25092;DHT22;13082;52.374;4.946;2024-02-04T07:47:19;10.30;99.90
25092;DHT22;13082;52.374;4.946;2024-02-04T07:49:47;10.40;99.90
25092;DHT22;13082;52.374;4.946;2024-02-04T07:52:13;10.30;99.90
25092;DHT22;13082;52.374;4.946;2024-02-04T07:54:39;10.40;99.90
25092;DHT22;13082;52.374;4.946;2024-02-04T07:57:04;10.40;99.90
25092;DHT22;13082;52.374;4.946;2024-02-04T07:59:30;10.40;99.90
25092;DHT22;13082;52.374;4.946;2024-02-04T08:01:56;10.40;99.90
25092;DHT22;13082;52.374;4.946;2024-02-04T08:04:21;10.40;99.90
25092;DHT22;13082;52.374;4.946;2024-02-04T08:06:47;10.40;99.90
25092;DHT22;13082;52.374;4.946;2024-02-04T08:09:13;10.40;99.90
25092;DHT22;13082;52.374;4.946;2024-02-04T08:11:39;10.40;99.90
25092;DHT22;13082;52.374;4.946;2024-02-04T08:14:04;10.40;99.90
25092;DHT22;13082;52.374;4.946;2024-02-04T08:16:30;10.40;99.90
25092;DHT22;13082;52.374;4.946;2024-02-04T08:18:55;10.40;99.90
25092;DHT22;13082;52.374;4.946;2024-02-04T08:21:21;10.40;99.90
25092;DHT22;13082;52.374;4.946;2024-02-04T08:23:47;10.40;99.90
25092;DHT22;13082;52.374;4.946;2024-02-04T08:26:13;10.40;99.90
25092;DHT22;13082;52.374;4.946;2024-02-04T08:28:39;10.40;99.90
25092;DHT22;13082;52.374;4.946;2024-02-04T08:31:04;10.40;99.90
25092;DHT22;13082;52.374;4.946;2024-02-04T08:33:30;10.50;99.90
25092;DHT22;13082;52.374;4.946;2024-02-04T08:35:56;10.50;99.90
25092;DHT22;13082;52.374;4.946;2024-02-04T08:38:22;10.50;99.90
25092;DHT22;13082;52.374;4.946;2024-02-04T08:40:47;10.50;99.90
25092;DHT22;13082;52.374;4.946;2024-02-04T08:43:13;10.50;99.90
25092;DHT22;13082;52.374;4.946;2024-02-04T08:45:38;10.50;99.90
25092;DHT22;13082;52.374;4.946;2024-02-04T08:48:04;10.60;99.90
25092;DHT22;13082;52.374;4.946;2024-02-04T08:50:30;10.60;99.90
25092;DHT22;13082;52.374;4.946;2024-02-04T08:52:56;10.70;99.90
25092;DHT22;13082;52.374;4.946;2024-02-04T08:55:21;10.70;99.90
25092;DHT22;13082;52.374;4.946;2024-02-04T08:57:47;10.60;99.90
25092;DHT22;13082;52.374;4.946;2024-02-04T09:00:14;10.60;99.90
25092;DHT22;13082;52.374;4.946;2024-02-04T09:02:41;10.60;99.90
25092;DHT22;13082;52.374;4.946;2024-02-04T09:05:07;10.70;99.90
25092;DHT22;13082;52.374;4.946;2024-02-04T09:07:32;10.70;99.90
25092;DHT22;13082;52.374;4.946;2024-02-04T09:09:58;10.70;99.90
25092;DHT22;13082;52.374;4.946;2024-02-04T09:12:23;10.70;99.90
25092;DHT22;13082;52.374;4.946;2024-02-04T09:14:49;10.70;99.90
25092;DHT22;13082;52.374;4.946;2024-02-04T09:17:14;10.70;99.90
25092;DHT22;13082;52.374;4.946;2024-02-04T09:19:40;10.80;99.90
25092;DHT22;13082;52.374;4.946;2024-02-04T09:22:06;10.80;99.90
25092;DHT22;13082;52.374;4.946;2024-02-04T09:24:31;10.80;99.90
25092;DHT22;13082;52.374;4.946;2024-02-04T09:26:57;10.80;99.90
25092;DHT22;13082;52.374;4.946;2024-02-04T09:29:23;10.80;99.90
25092;DHT22;13082;52.374;4.946;2024-02-04T09:31:48;10.80;99.90
25092;DHT22;13082;52.374;4.946;2024-02-04T09:34:16;10.80;99.90
25092;DHT22;13082;52.374;4.946;2024-02-04T09:36:41;10.80;99.90
25092;DHT22;13082;52.374;4.946;2024-02-04T09:39:07;10.90;99.90
25092;DHT22;13082;52.374;4.946;2024-02-04T09:41:33;10.90;99.90
25092;DHT22;13082;52.374;4.946;2024-02-04T09:43:59;10.90;99.90
25092;DHT22;13082;52.374;4.946;2024-02-04T09:46:26;10.90;99.90
25092;DHT22;13082;52.374;4.946;2024-02-04T09:48:53;11.00;99.90
25092;DHT22;13082;52.374;4.946;2024-02-04T09:51:20;10.90;99.90
25092;DHT22;13082;52.374;4.946;2024-02-04T09:53:51;11.00;99.90
25092;DHT22;13082;52.374;4.946;2024-02-04T09:56:18;11.00;99.90
25092;DHT22;13082;52.374;4.946;2024-02-04T09:58:44;11.00;99.90
25092;DHT22;13082;52.374;4.946;2024-02-04T10:01:10;11.00;99.90
25092;DHT22;13082;52.374;4.946;2024-02-04T10:03:37;11.00;99.90
25092;DHT22;13082;52.374;4.946;2024-02-04T10:06:03;11.00;99.90
25092;DHT22;13082;52.374;4.946;2024-02-04T10:08:29;11.00;99.90
25092;DHT22;13082;52.374;4.946;2024-02-04T10:10:54;10.90;99.90
25092;DHT22;13082;52.374;4.946;2024-02-04T10:13:20;11.00;99.90
25092;DHT22;13082;52.374;4.946;2024-02-04T10:15:47;11.00;99.90
25092;DHT22;13082;52.374;4.946;2024-02-04T10:18:13;11.00;99.90
25092;DHT22;13082;52.374;4.946;2024-02-04T10:20:39;11.10;99.90
25092;DHT22;13082;52.374;4.946;2024-02-04T10:23:05;11.10;99.90
25092;DHT22;13082;52.374;4.946;2024-02-04T10:25:30;11.00;99.90
25092;DHT22;13082;52.374;4.946;2024-02-04T10:27:57;11.00;99.90
25092;DHT22;13082;52.374;4.946;2024-02-04T10:30:23;11.00;99.90
25092;DHT22;13082;52.374;4.946;2024-02-04T10:32:53;11.00;99.90
25092;DHT22;13082;52.374;4.946;2024-02-04T10:35:22;11.10;99.90
25092;DHT22;13082;52.374;4.946;2024-02-04T10:37:49;11.10;99.90
25092;DHT22;13082;52.374;4.946;2024-02-04T10:40:15;11.10;99.90
25092;DHT22;13082;52.374;4.946;2024-02-04T10:42:43;11.20;99.90
25092;DHT22;13082;52.374;4.946;2024-02-04T10:45:10;11.20;99.90
25092;DHT22;13082;52.374;4.946;2024-02-04T10:47:39;11.10;99.90
25092;DHT22;13082;52.374;4.946;2024-02-04T10:50:06;11.10;99.90
25092;DHT22;13082;52.374;4.946;2024-02-04T10:52:37;11.20;99.90
25092;DHT22;13082;52.374;4.946;2024-02-04T10:55:08;11.20;99.90
25092;DHT22;13082;52.374;4.946;2024-02-04T10:57:35;11.20;99.90
25092;DHT22;13082;52.374;4.946;2024-02-04T11:00:03;11.20;99.90
25092;DHT22;13082;52.374;4.946;2024-02-04T11:02:34;11.20;99.90
25092;DHT22;13082;52.374;4.946;2024-02-04T11:05:00;11.20;99.90
25092;DHT22;13082;52.374;4.946;2024-02-04T11:07:31;11.10;99.90
25092;DHT22;13082;52.374;4.946;2024-02-04T11:09:57;11.10;99.90
25092;DHT22;13082;52.374;4.946;2024-02-04T11:12:24;11.10;99.90
25092;DHT22;13082;52.374;4.946;2024-02-04T11:14:54;11.10;99.90
25092;DHT22;13082;52.374;4.946;2024-02-04T11:26:09;11.00;99.90
25092;DHT22;13082;52.374;4.946;2024-02-04T11:28:35;11.10;99.90
25092;DHT22;13082;52.374;4.946;2024-02-04T11:31:01;11.10;99.90
25092;DHT22;13082;52.374;4.946;2024-02-04T11:33:28;11.10;99.90
25092;DHT22;13082;52.374;4.946;2024-02-04T11:36:03;11.20;99.90
25092;DHT22;13082;52.374;4.946;2024-02-04T11:38:35;11.20;99.90
25092;DHT22;13082;52.374;4.946;2024-02-04T11:41:03;11.30;99.90
25092;DHT22;13082;52.374;4.946;2024-02-04T11:43:31;11.30;99.90
25092;DHT22;13082;52.374;4.946;2024-02-04T11:45:57;11.30;99.90
25092;DHT22;13082;52.374;4.946;2024-02-04T11:48:29;11.30;99.90
25092;DHT22;13082;52.374;4.946;2024-02-04T11:50:58;11.30;99.90
25092;DHT22;13082;52.374;4.946;2024-02-04T11:53:24;11.30;99.90
25092;DHT22;13082;52.374;4.946;2024-02-04T11:55:53;11.30;99.90
25092;DHT22;13082;52.374;4.946;2024-02-04T11:58:18;11.30;99.90
25092;DHT22;13082;52.374;4.946;2024-02-04T12:00:45;11.30;99.90
25092;DHT22;13082;52.374;4.946;2024-02-04T12:03:11;11.30;99.90
25092;DHT22;13082;52.374;4.946;2024-02-04T12:05:37;11.20;99.90
25092;DHT22;13082;52.374;4.946;2024-02-04T12:08:05;11.20;99.90
25092;DHT22;13082;52.374;4.946;2024-02-04T12:10:32;11.10;99.90
25092;DHT22;13082;52.374;4.946;2024-02-04T12:13:06;11.10;99.90
25092;DHT22;13082;52.374;4.946;2024-02-04T12:15:35;11.00;99.90
25092;DHT22;13082;52.374;4.946;2024-02-04T12:18:11;11.00;99.90
25092;DHT22;13082;52.374;4.946;2024-02-04T12:20:38;11.00;99.90
25092;DHT22;13082;52.374;4.946;2024-02-04T12:23:04;11.00;99.90
25092;DHT22;13082;52.374;4.946;2024-02-04T12:25:34;11.10;99.90
25092;DHT22;13082;52.374;4.946;2024-02-04T12:28:00;11.10;99.90
25092;DHT22;13082;52.374;4.946;2024-02-04T12:30:28;11.00;99.90
25092;DHT22;13082;52.374;4.946;2024-02-04T12:32:58;11.00;99.90
25092;DHT22;13082;52.374;4.946;2024-02-04T12:35:25;11.00;99.90
25092;DHT22;13082;52.374;4.946;2024-02-04T12:37:52;11.00;99.90
25092;DHT22;13082;52.374;4.946;2024-02-04T12:40:29;11.00;99.90
25092;DHT22;13082;52.374;4.946;2024-02-04T12:42:55;11.00;99.90
25092;DHT22;13082;52.374;4.946;2024-02-04T12:45:22;11.00;99.90
25092;DHT22;13082;52.374;4.946;2024-02-04T12:47:50;10.90;99.90
25092;DHT22;13082;52.374;4.946;2024-02-04T12:50:16;10.90;99.90
25092;DHT22;13082;52.374;4.946;2024-02-04T12:52:44;10.90;99.90
25092;DHT22;13082;52.374;4.946;2024-02-04T12:55:19;10.90;99.90
25092;DHT22;13082;52.374;4.946;2024-02-04T12:57:46;10.90;99.90
25092;DHT22;13082;52.374;4.946;2024-02-04T13:00:12;10.90;99.90
25092;DHT22;13082;52.374;4.946;2024-02-04T13:02:37;10.90;99.90
25092;DHT22;13082;52.374;4.946;2024-02-04T13:05:04;10.90;99.90
25092;DHT22;13082;52.374;4.946;2024-02-04T13:07:30;10.90;99.90
25092;DHT22;13082;52.374;4.946;2024-02-04T13:09:59;10.90;99.90
25092;DHT22;13082;52.374;4.946;2024-02-04T13:12:27;10.90;99.90
25092;DHT22;13082;52.374;4.946;2024-02-04T13:14:53;10.90;99.90
25092;DHT22;13082;52.374;4.946;2024-02-04T13:17:18;10.90;99.90
25092;DHT22;13082;52.374;4.946;2024-02-04T13:19:44;11.00;99.90
25092;DHT22;13082;52.374;4.946;2024-02-04T13:22:10;11.00;99.90
25092;DHT22;13082;52.374;4.946;2024-02-04T13:24:37;11.00;99.90
25092;DHT22;13082;52.374;4.946;2024-02-04T13:27:03;11.10;99.90
25092;DHT22;13082;52.374;4.946;2024-02-04T13:29:30;11.10;99.90
25092;DHT22;13082;52.374;4.946;2024-02-04T13:31:55;11.10;99.90
25092;DHT22;13082;52.374;4.946;2024-02-04T13:34:21;11.20;99.90
25092;DHT22;13082;52.374;4.946;2024-02-04T13:36:47;11.20;99.90
25092;DHT22;13082;52.374;4.946;2024-02-04T13:39:13;11.20;99.90
25092;DHT22;13082;52.374;4.946;2024-02-04T13:41:39;11.20;99.90
25092;DHT22;13082;52.374;4.946;2024-02-04T13:44:05;11.20;99.90
25092;DHT22;13082;52.374;4.946;2024-02-04T13:46:31;11.20;99.90
25092;DHT22;13082;52.374;4.946;2024-02-04T13:48:57;11.20;99.90
25092;DHT22;13082;52.374;4.946;2024-02-04T13:51:22;11.20;99.90
25092;DHT22;13082;52.374;4.946;2024-02-04T13:53:48;11.20;99.90
25092;DHT22;13082;52.374;4.946;2024-02-04T13:56:14;11.20;99.90
25092;DHT22;13082;52.374;4.946;2024-02-04T13:58:39;11.20;99.90
25092;DHT22;13082;52.374;4.946;2024-02-04T14:01:05;11.20;99.90
25092;DHT22;13082;52.374;4.946;2024-02-04T14:03:31;11.20;99.90
25092;DHT22;13082;52.374;4.946;2024-02-04T14:05:57;11.20;99.90
25092;DHT22;13082;52.374;4.946;2024-02-04T14:08:22;11.20;99.90
25092;DHT22;13082;52.374;4.946;2024-02-04T14:10:48;11.20;99.90
25092;DHT22;13082;52.374;4.946;2024-02-04T14:13:14;11.30;99.90
25092;DHT22;13082;52.374;4.946;2024-02-04T14:15:40;11.20;99.90
25092;DHT22;13082;52.374;4.946;2024-02-04T14:18:06;11.20;99.90
25092;DHT22;13082;52.374;4.946;2024-02-04T14:20:32;11.20;99.90
25092;DHT22;13082;52.374;4.946;2024-02-04T14:22:58;11.20;99.90
25092;DHT22;13082;52.374;4.946;2024-02-04T14:25:24;11.20;99.90
25092;DHT22;13082;52.374;4.946;2024-02-04T14:27:50;11.20;99.90
25092;DHT22;13082;52.374;4.946;2024-02-04T14:30:16;11.20;99.90
25092;DHT22;13082;52.374;4.946;2024-02-04T14:32:41;11.30;99.90
25092;DHT22;13082;52.374;4.946;2024-02-04T14:35:08;11.20;99.90
25092;DHT22;13082;52.374;4.946;2024-02-04T14:37:38;11.30;99.90
25092;DHT22;13082;52.374;4.946;2024-02-04T14:40:06;11.30;99.90
25092;DHT22;13082;52.374;4.946;2024-02-04T14:42:32;11.30;99.90
25092;DHT22;13082;52.374;4.946;2024-02-04T14:44:58;11.30;99.90
25092;DHT22;13082;52.374;4.946;2024-02-04T14:47:26;11.30;99.90
25092;DHT22;13082;52.374;4.946;2024-02-04T14:49:53;11.30;99.90
25092;DHT22;13082;52.374;4.946;2024-02-04T14:52:18;11.30;99.90
25092;DHT22;13082;52.374;4.946;2024-02-04T14:54:44;11.30;99.90
25092;DHT22;13082;52.374;4.946;2024-02-04T14:57:10;11.30;99.90
25092;DHT22;13082;52.374;4.946;2024-02-04T14:59:35;11.40;99.90
25092;DHT22;13082;52.374;4.946;2024-02-04T15:02:03;11.40;99.90
25092;DHT22;13082;52.374;4.946;2024-02-04T15:04:32;11.40;99.90
25092;DHT22;13082;52.374;4.946;2024-02-04T15:06:58;11.40;99.90
25092;DHT22;13082;52.374;4.946;2024-02-04T15:09:24;11.40;99.90
25092;DHT22;13082;52.374;4.946;2024-02-04T15:11:50;11.40;99.90
25092;DHT22;13082;52.374;4.946;2024-02-04T15:14:16;11.40;99.90
25092;DHT22;13082;52.374;4.946;2024-02-04T15:16:42;11.50;99.90
25092;DHT22;13082;52.374;4.946;2024-02-04T15:19:09;11.40;99.90
25092;DHT22;13082;52.374;4.946;2024-02-04T15:21:35;11.50;99.90
25092;DHT22;13082;52.374;4.946;2024-02-04T15:24:01;11.50;99.90
25092;DHT22;13082;52.374;4.946;2024-02-04T15:26:31;11.40;99.90
25092;DHT22;13082;52.374;4.946;2024-02-04T15:29:01;11.50;99.90
25092;DHT22;13082;52.374;4.946;2024-02-04T15:31:27;11.40;99.90
25092;DHT22;13082;52.374;4.946;2024-02-04T15:33:54;11.50;99.90
25092;DHT22;13082;52.374;4.946;2024-02-04T15:36:20;11.50;99.90
25092;DHT22;13082;52.374;4.946;2024-02-04T15:38:46;11.40;99.90
25092;DHT22;13082;52.374;4.946;2024-02-04T15:41:12;11.50;99.90